Time;durP1;ratioP1;P1;durP2;ratioP2;P2;SDS_P1;SDS_P2;PMS_P1;PMS_P2;Temp;Humidity;BMP_temperature;BMP_pressure;BME280_temperature;BME280_humidity;BME280_pressure;Samples;Min_cycle;Max_cycle;Signal;HPM_P1;HPM_P2
2022/06/05 00:00:27;;;;;;;11.40;8.70;;;19.80;89.70;;;;;;5043931;28;20238;-76
2022/06/05 00:02:58;;;;;;;12.10;9.60;;;19.90;89.90;;;;;;5034016;28;20427;-75
2022/06/05 00:05:47;;;;;;;15.80;9.60;;;19.90;89.60;;;;;;5040825;28;20220;-75
2022/06/05 00:08:43;;;;;;;13.60;9.43;;;19.90;89.60;;;;;;5038063;28;20474;-76
2022/06/05 00:11:11;;;;;;;14.60;9.90;;;19.90;89.70;;;;;;5034393;28;21015;-72
2022/06/05 00:13:49;;;;;;;13.33;10.00;;;19.90;89.60;;;;;;5043816;28;20460;-73
2022/06/05 00:16:17;;;;;;;14.03;9.10;;;19.90;89.60;;;;;;5035326;28;20459;-74
2022/06/05 00:18:44;;;;;;;13.70;9.67;;;19.90;89.60;;;;;;5042931;28;20431;-74
2022/06/05 00:21:11;;;;;;;12.63;8.67;;;19.90;89.60;;;;;;5037664;28;20438;-73
2022/06/05 00:23:38;;;;;;;13.13;9.67;;;19.90;89.60;;;;;;5042761;28;20435;-73
2022/06/05 00:26:33;;;;;;;12.93;10.00;;;19.80;89.70;;;;;;5036241;28;20532;-75
2022/06/05 00:29:22;;;;;;;13.23;9.43;;;19.90;89.60;;;;;;5039767;28;20416;-74
2022/06/05 00:32:12;;;;;;;14.87;10.90;;;19.80;89.60;;;;;;5039579;28;20797;-74
2022/06/05 00:34:37;;;;;;;12.10;8.77;;;19.80;90.00;;;;;;5036343;28;20408;-74
2022/06/05 00:37:43;;;;;;;12.13;9.53;;;19.80;89.90;;;;;;5038109;28;20509;-74
2022/06/05 00:40:15;;;;;;;12.90;10.33;;;19.80;89.90;;;;;;5038236;28;20340;-73
2022/06/05 00:42:40;;;;;;;24.03;10.70;;;19.70;90.00;;;;;;5042054;28;20426;-73
2022/06/05 00:45:09;;;;;;;12.13;9.87;;;19.70;90.20;;;;;;5041649;28;20423;-73
2022/06/05 00:47:35;;;;;;;16.87;9.40;;;19.80;90.10;;;;;;5038403;28;20312;-74
2022/06/05 00:50:22;;;;;;;16.70;12.07;;;19.80;89.90;;;;;;5049360;28;20608;-74
2022/06/05 00:52:53;;;;;;;17.10;11.90;;;19.90;89.70;;;;;;5041497;28;20413;-74
2022/06/05 00:55:20;;;;;;;14.83;11.73;;;19.90;89.70;;;;;;5046204;28;20427;-72
2022/06/05 00:57:47;;;;;;;15.33;10.63;;;19.80;89.90;;;;;;5035081;28;20463;-74
2022/06/05 01:00:18;;;;;;;18.93;12.70;;;19.80;89.90;;;;;;5042156;28;20429;-71
2022/06/05 01:02:47;;;;;;;15.17;10.80;;;19.80;90.00;;;;;;5034414;28;20506;-75
2022/06/05 01:05:15;;;;;;;28.70;11.10;;;19.80;90.10;;;;;;5044763;28;20424;-72
2022/06/05 01:07:41;;;;;;;18.13;10.87;;;19.80;90.10;;;;;;5030772;28;20479;-73
2022/06/05 01:10:08;;;;;;;18.23;10.33;;;19.70;90.10;;;;;;5043947;28;20518;-73
2022/06/05 01:12:54;;;;;;;13.73;10.17;;;19.80;90.00;;;;;;5033989;28;20456;-73
2022/06/05 01:15:36;;;;;;;12.50;10.60;;;19.80;89.90;;;;;;5040888;28;20421;-74
2022/06/05 01:18:16;;;;;;;14.40;10.50;;;19.80;89.90;;;;;;5042465;28;20443;-74
2022/06/05 01:21:00;;;;;;;15.93;11.10;;;19.70;90.00;;;;;;5040427;28;20896;-73
2022/06/05 01:23:49;;;;;;;14.17;10.70;;;19.70;90.10;;;;;;5042070;28;20928;-75
2022/06/05 01:26:26;;;;;;;15.40;11.10;;;19.70;89.90;;;;;;5027912;28;20835;-73
2022/06/05 01:29:04;;;;;;;15.73;10.53;;;19.70;89.90;;;;;;5043069;28;20415;-75
2022/06/05 01:31:36;;;;;;;14.67;10.63;;;19.80;90.00;;;;;;5035799;28;20420;-75
2022/06/05 01:34:19;;;;;;;16.87;9.93;;;19.70;89.90;;;;;;5041346;28;20426;-74
2022/06/05 01:37:08;;;;;;;16.17;9.43;;;19.60;90.00;;;;;;5040859;28;20455;-74
2022/06/05 01:39:46;;;;;;;14.13;9.90;;;19.60;90.30;;;;;;5038272;28;20424;-73
2022/06/05 01:42:18;;;;;;;13.10;9.60;;;19.70;90.10;;;;;;5041484;28;20936;-74
2022/06/05 01:44:47;;;;;;;13.07;9.43;;;19.60;90.10;;;;;;5037251;28;20431;-73
2022/06/05 01:47:25;;;;;;;13.93;10.83;;;19.70;90.00;;;;;;5040214;28;20519;-74
2022/06/05 01:50:16;;;;;;;13.27;10.40;;;19.70;90.10;;;;;;5040028;28;20439;-75
2022/06/05 01:52:55;;;;;;;15.33;10.60;;;19.60;89.90;;;;;;5043435;28;20478;-75
2022/06/05 01:55:56;;;;;;;15.63;11.20;;;19.50;90.20;;;;;;5034696;28;20436;-74
2022/06/05 01:58:29;;;;;;;17.73;10.50;;;19.50;90.00;;;;;;5037814;28;20462;-75
2022/06/05 02:00:59;;;;;;;14.87;9.73;;;19.40;90.20;;;;;;5040397;28;20433;-73
2022/06/05 02:03:33;;;;;;;13.63;10.00;;;19.50;90.40;;;;;;5038060;28;20424;-73
2022/06/05 02:06:07;;;;;;;17.63;12.60;;;19.50;90.20;;;;;;5035479;28;20514;-78
2022/06/05 02:08:44;;;;;;;16.20;11.63;;;19.40;90.00;;;;;;5034832;28;20471;-75
2022/06/05 02:11:19;;;;;;;15.77;11.03;;;19.40;90.20;;;;;;5045949;28;20920;-73
2022/06/05 02:13:45;;;;;;;14.23;10.53;;;19.40;90.40;;;;;;5039492;28;20427;-74
2022/06/05 02:16:11;;;;;;;18.10;10.93;;;19.40;90.20;;;;;;5043076;28;20468;-74
2022/06/05 02:18:37;;;;;;;15.83;10.50;;;19.50;89.90;;;;;;5041889;28;20432;-73
2022/06/05 02:21:04;;;;;;;15.43;11.00;;;19.50;89.60;;;;;;5044563;28;20709;-72
2022/06/05 02:23:33;;;;;;;15.13;10.17;;;19.60;89.50;;;;;;5043380;28;20454;-73
2022/06/05 02:26:02;;;;;;;13.53;10.00;;;19.50;89.60;;;;;;5038829;28;20475;-73
2022/06/05 02:28:28;;;;;;;14.73;11.43;;;19.60;89.60;;;;;;5041426;28;20471;-74
2022/06/05 02:31:00;;;;;;;15.73;12.20;;;19.60;89.50;;;;;;5043117;28;21222;-74
2022/06/05 02:33:53;;;;;;;16.33;11.70;;;19.40;89.60;;;;;;5045139;28;20202;-72
2022/06/05 02:36:37;;;;;;;20.17;12.07;;;19.20;90.10;;;;;;5042569;28;21325;-73
2022/06/05 02:39:13;;;;;;;15.90;10.70;;;19.20;90.20;;;;;;5048643;28;20964;-73
2022/06/05 02:41:59;;;;;;;17.67;12.23;;;19.10;90.40;;;;;;5037687;28;20498;-72
2022/06/05 02:44:42;;;;;;;16.60;11.50;;;19.00;90.50;;;;;;5043933;28;20438;-73
2022/06/05 02:47:16;;;;;;;16.67;12.03;;;19.00;90.60;;;;;;5042384;28;20905;-72
2022/06/05 02:49:45;;;;;;;18.27;13.20;;;19.10;90.70;;;;;;5047814;28;20418;-73
2022/06/05 02:52:11;;;;;;;17.50;12.07;;;19.10;90.60;;;;;;5046063;28;20429;-72
2022/06/05 02:54:46;;;;;;;20.20;13.53;;;19.10;90.60;;;;;;5048388;28;20433;-73
2022/06/05 02:57:13;;;;;;;16.10;11.50;;;19.20;90.40;;;;;;5047696;28;20943;-72
2022/06/05 02:59:39;;;;;;;18.30;13.27;;;19.30;90.20;;;;;;5041530;28;20469;-72
2022/06/05 03:04:50;;;;;;;16.50;11.87;;;19.20;90.20;;;;;;5049047;28;20461;-72
2022/06/05 03:07:16;;;;;;;21.13;13.17;;;19.30;90.20;;;;;;5051838;28;20474;-72
2022/06/05 03:09:42;;;;;;;19.50;11.90;;;19.30;90.00;;;;;;5047020;28;20193;-73
2022/06/05 03:12:08;;;;;;;17.03;12.60;;;19.30;90.00;;;;;;5046213;28;20425;-73
2022/06/05 03:14:34;;;;;;;15.60;11.33;;;19.40;89.70;;;;;;5034916;28;20440;-72
2022/06/05 03:17:00;;;;;;;18.63;12.77;;;19.30;89.70;;;;;;5039900;28;20463;-73
2022/06/05 03:19:27;;;;;;;21.40;12.50;;;19.20;90.00;;;;;;5035522;28;20521;-73
2022/06/05 03:21:53;;;;;;;15.43;11.23;;;19.20;90.20;;;;;;5046381;28;20889;-73
2022/06/05 03:24:18;;;;;;;18.10;12.73;;;19.10;90.40;;;;;;5040948;28;20425;-72
2022/06/05 03:26:45;;;;;;;17.70;12.70;;;19.10;90.40;;;;;;5038606;28;20213;-72
2022/06/05 03:29:11;;;;;;;18.37;11.50;;;19.10;90.50;;;;;;5040516;28;20197;-72
2022/06/05 03:31:38;;;;;;;13.93;10.33;;;19.10;90.50;;;;;;5045585;28;20783;-73
2022/06/05 03:34:04;;;;;;;17.20;11.53;;;19.10;90.50;;;;;;5045320;28;20189;-73
2022/06/05 03:36:30;;;;;;;16.30;12.27;;;19.20;90.40;;;;;;5047662;28;20476;-73
2022/06/05 03:38:55;;;;;;;15.87;11.73;;;19.30;90.40;;;;;;5038444;28;20423;-72
2022/06/05 03:41:21;;;;;;;17.43;11.80;;;19.40;90.00;;;;;;5042817;28;20639;-73
2022/06/05 03:43:47;;;;;;;18.40;12.67;;;19.40;89.60;;;;;;5040931;28;20247;-73
2022/06/05 03:46:15;;;;;;;15.00;10.97;;;19.30;89.50;;;;;;5037055;28;20212;-72
2022/06/05 03:48:41;;;;;;;14.70;10.90;;;19.30;89.70;;;;;;5038746;28;20185;-74
2022/06/05 03:51:08;;;;;;;16.23;11.37;;;19.40;89.70;;;;;;5051681;28;20428;-73
2022/06/05 03:53:34;;;;;;;15.70;11.00;;;19.50;89.30;;;;;;5058128;28;20625;-73
2022/06/05 03:56:00;;;;;;;19.40;13.47;;;19.50;89.00;;;;;;5062208;28;20461;-72
2022/06/05 03:58:26;;;;;;;19.80;13.40;;;19.40;89.20;;;;;;5065923;28;20486;-72
2022/06/05 04:00:52;;;;;;;18.90;13.03;;;19.50;89.60;;;;;;5060168;28;20185;-72
2022/06/05 04:03:18;;;;;;;18.83;11.77;;;19.50;89.20;;;;;;5064391;28;20230;-72
2022/06/05 04:05:44;;;;;;;16.70;12.07;;;19.40;89.60;;;;;;5059265;28;20431;-72
2022/06/05 04:08:14;;;;;;;15.70;11.03;;;19.40;89.90;;;;;;5066715;28;20197;-72
2022/06/05 04:10:40;;;;;;;17.43;12.37;;;19.30;90.20;;;;;;5055621;28;20419;-71
2022/06/05 04:13:06;;;;;;;20.20;13.80;;;19.30;90.40;;;;;;5066123;28;20469;-72
2022/06/05 04:15:39;;;;;;;17.17;12.40;;;19.40;90.40;;;;;;5054621;28;20515;-73
2022/06/05 04:18:06;;;;;;;18.20;13.20;;;19.40;90.70;;;;;;5047364;28;20406;-72
2022/06/05 04:20:33;;;;;;;17.37;12.63;;;19.30;91.00;;;;;;5035853;28;20432;-73
2022/06/05 04:23:00;;;;;;;20.20;13.50;;;19.30;91.50;;;;;;5044860;28;20492;-73
2022/06/05 04:25:26;;;;;;;18.60;12.73;;;19.30;91.90;;;;;;5042328;28;20478;-73
2022/06/05 04:27:52;;;;;;;20.47;13.83;;;19.40;92.00;;;;;;5045130;28;20502;-73
2022/06/05 04:30:18;;;;;;;19.80;13.00;;;19.40;91.80;;;;;;5038358;28;20190;-73
2022/06/05 04:32:43;;;;;;;15.93;11.47;;;19.40;91.80;;;;;;5047257;28;20201;-72
2022/06/05 04:35:10;;;;;;;19.30;12.73;;;19.50;91.80;;;;;;5041886;28;20437;-73
2022/06/05 04:37:36;;;;;;;19.17;12.00;;;19.40;91.50;;;;;;5048220;28;20316;-72
2022/06/05 04:40:04;;;;;;;19.10;14.37;;;19.20;91.40;;;;;;5043592;28;20447;-73
2022/06/05 04:42:30;;;;;;;19.27;14.33;;;19.10;91.30;;;;;;5043309;28;20420;-72
2022/06/05 04:44:57;;;;;;;21.87;14.93;;;19.00;91.80;;;;;;5043409;28;20450;-72
2022/06/05 04:47:23;;;;;;;23.27;14.20;;;19.00;92.30;;;;;;5034525;28;20504;-73
2022/06/05 04:49:49;;;;;;;19.97;14.03;;;19.10;92.80;;;;;;5040131;28;21208;-72
2022/06/05 04:52:14;;;;;;;21.80;14.80;;;19.00;92.50;;;;;;5039115;28;20933;-72
2022/06/05 04:54:41;;;;;;;22.30;14.20;;;19.00;92.60;;;;;;5039576;28;20283;-72
2022/06/05 04:57:07;;;;;;;21.10;14.10;;;18.80;92.80;;;;;;5036411;28;20695;-73
2022/06/05 04:59:33;;;;;;;23.30;15.47;;;18.80;93.20;;;;;;5040023;28;20416;-74
2022/06/05 05:01:58;;;;;;;24.10;16.10;;;18.80;93.30;;;;;;5043310;28;20439;-73
2022/06/05 05:04:24;;;;;;;21.63;15.27;;;18.80;93.20;;;;;;5038491;28;20200;-72
2022/06/05 05:06:50;;;;;;;20.83;14.83;;;18.80;93.30;;;;;;5040124;28;20220;-73
2022/06/05 05:09:15;;;;;;;25.57;14.93;;;18.70;93.50;;;;;;5040706;28;20560;-73
2022/06/05 05:11:41;;;;;;;22.80;14.70;;;18.60;93.90;;;;;;5037100;28;20550;-72
2022/06/05 05:14:08;;;;;;;24.20;15.70;;;18.50;94.10;;;;;;5048037;28;20262;-73
2022/06/05 05:16:34;;;;;;;29.53;17.40;;;18.40;94.60;;;;;;5037123;28;20469;-74
2022/06/05 05:19:00;;;;;;;24.20;15.50;;;18.30;95.00;;;;;;5045222;28;20813;-73
2022/06/05 05:21:27;;;;;;;24.70;15.37;;;18.30;95.30;;;;;;5037181;28;20430;-72
2022/06/05 05:23:54;;;;;;;24.03;16.53;;;18.30;95.40;;;;;;5042185;28;20177;-73
2022/06/05 05:26:24;;;;;;;26.33;16.00;;;18.30;95.60;;;;;;5030059;28;21004;-73
2022/06/05 05:28:51;;;;;;;27.10;16.97;;;18.40;95.90;;;;;;5045236;28;20413;-73
2022/06/05 05:31:24;;;;;;;24.20;15.33;;;18.30;95.80;;;;;;5039381;28;20506;-73
2022/06/05 05:33:50;;;;;;;28.40;18.83;;;18.30;95.90;;;;;;5042977;28;20793;-74
2022/06/05 05:36:21;;;;;;;27.50;17.70;;;18.20;96.00;;;;;;5043202;28;20462;-73
2022/06/05 05:44:18;;;;;;;30.73;18.97;;;18.20;96.80;;;;;;5034739;28;20524;-74
2022/06/05 05:46:44;;;;;;;24.83;16.00;;;18.20;97.10;;;;;;5037036;28;20603;-74
2022/06/05 05:49:11;;;;;;;26.60;17.10;;;18.20;97.20;;;;;;5034847;28;20565;-73
2022/06/05 05:51:37;;;;;;;42.23;21.40;;;18.20;97.30;;;;;;5038619;28;20197;-72
2022/06/05 05:54:04;;;;;;;28.23;18.53;;;18.20;97.40;;;;;;5033416;28;20428;-72
2022/06/05 05:56:30;;;;;;;30.27;19.33;;;18.10;97.80;;;;;;5030299;28;20460;-73
2022/06/05 05:58:56;;;;;;;25.80;17.67;;;18.00;98.00;;;;;;5043943;28;20944;-76
2022/06/05 06:01:22;;;;;;;29.40;18.20;;;18.00;98.30;;;;;;5044764;28;20510;-73
2022/06/05 06:03:48;;;;;;;30.97;20.33;;;17.90;98.50;;;;;;5035481;28;20931;-73
2022/06/05 06:06:14;;;;;;;27.93;17.77;;;17.90;98.70;;;;;;5035697;28;20467;-75
2022/06/05 06:08:40;;;;;;;33.10;20.83;;;17.80;98.80;;;;;;5033580;28;20239;-74
2022/06/05 06:11:06;;;;;;;32.77;21.17;;;17.80;98.80;;;;;;5041110;28;20449;-74
2022/06/05 06:13:32;;;;;;;28.47;17.60;;;17.80;99.00;;;;;;5044135;28;20423;-73
2022/06/05 06:15:58;;;;;;;28.10;16.83;;;17.70;99.20;;;;;;5036820;28;20456;-69
2022/06/05 06:18:23;;;;;;;23.10;15.23;;;17.70;99.20;;;;;;5037293;28;20893;-75
2022/06/05 06:20:49;;;;;;;23.87;15.80;;;17.60;99.20;;;;;;5040178;28;20193;-74
2022/06/05 06:23:15;;;;;;;25.27;16.13;;;17.50;99.10;;;;;;5039334;28;20194;-72
2022/06/05 06:25:41;;;;;;;22.00;14.47;;;17.50;99.20;;;;;;5042668;28;20506;-73
2022/06/05 06:28:08;;;;;;;21.67;13.43;;;17.50;99.20;;;;;;5045105;28;20455;-73
2022/06/05 06:30:35;;;;;;;18.20;12.70;;;17.50;99.10;;;;;;5042086;28;20909;-74
2022/06/05 06:33:00;;;;;;;22.43;13.77;;;17.40;99.00;;;;;;5036795;28;20436;-74
2022/06/05 06:35:27;;;;;;;17.97;12.20;;;17.40;99.00;;;;;;5034845;28;20419;-72
2022/06/05 06:37:53;;;;;;;18.40;12.50;;;17.40;99.10;;;;;;5040005;28;20224;-75
2022/06/05 06:40:19;;;;;;;23.43;13.57;;;17.40;99.20;;;;;;5035669;28;20423;-73
2022/06/05 06:42:45;;;;;;;23.07;13.97;;;17.50;99.30;;;;;;5045215;28;20972;-73
2022/06/05 06:45:11;;;;;;;19.60;12.40;;;17.40;99.40;;;;;;5038120;28;20430;-73
2022/06/05 06:47:37;;;;;;;17.50;11.67;;;17.40;99.40;;;;;;5041119;28;20244;-74
2022/06/05 06:50:03;;;;;;;16.90;11.60;;;17.40;99.60;;;;;;5038946;28;20436;-76
2022/06/05 06:52:29;;;;;;;15.33;10.43;;;17.40;99.50;;;;;;5048382;28;20181;-71
2022/06/05 06:54:55;;;;;;;14.03;9.50;;;17.40;99.50;;;;;;5037982;28;20418;-75
2022/06/05 06:57:21;;;;;;;13.47;9.50;;;17.50;99.50;;;;;;5046198;28;20224;-72
2022/06/05 06:59:46;;;;;;;16.60;9.03;;;17.60;99.40;;;;;;5046925;28;20184;-75
2022/06/05 07:02:13;;;;;;;11.83;8.70;;;17.60;99.30;;;;;;5050067;28;20673;-73
2022/06/05 07:04:39;;;;;;;15.70;9.30;;;17.70;99.20;;;;;;5049883;28;20197;-73
2022/06/05 07:07:05;;;;;;;14.17;8.33;;;17.80;99.00;;;;;;5044920;28;20477;-74
2022/06/05 07:09:32;;;;;;;11.93;7.67;;;17.80;98.90;;;;;;5043201;28;20190;-74
2022/06/05 07:11:58;;;;;;;9.57;6.27;;;17.90;98.80;;;;;;5045053;28;20485;-72
2022/06/05 07:14:26;;;;;;;10.50;6.80;;;17.80;98.30;;;;;;5052653;28;20416;-71
2022/06/05 07:16:51;;;;;;;10.00;6.13;;;18.00;98.30;;;;;;5070920;28;20222;-71
2022/06/05 07:19:18;;;;;;;13.60;7.20;;;18.00;98.00;;;;;;5074458;28;20433;-73
2022/06/05 07:21:44;;;;;;;11.23;6.80;;;18.00;96.20;;;;;;5051447;28;20425;-75
2022/06/05 07:24:09;;;;;;;8.70;7.10;;;18.00;96.50;;;;;;5033620;28;20525;-75
2022/06/05 07:26:35;;;;;;;8.23;6.87;;;17.90;96.90;;;;;;5038426;28;20561;-73
2022/06/05 07:29:02;;;;;;;12.13;6.60;;;17.90;97.20;;;;;;5034999;28;20186;-72
2022/06/05 07:31:29;;;;;;;8.43;6.07;;;17.90;97.40;;;;;;5044645;28;20473;-75
2022/06/05 07:33:57;;;;;;;8.63;6.23;;;17.90;97.00;;;;;;5051569;28;20423;-74
2022/06/05 07:36:25;;;;;;;8.87;6.07;;;17.90;96.80;;;;;;5042115;28;20459;-74
2022/06/05 07:38:51;;;;;;;8.20;5.27;;;17.90;96.70;;;;;;5043693;28;20446;-74
2022/06/05 07:41:26;;;;;;;10.40;4.87;;;18.00;96.50;;;;;;5040477;28;20421;-75
2022/06/05 07:43:52;;;;;;;7.90;5.00;;;18.00;95.90;;;;;;5041167;28;21011;-74
2022/06/05 07:46:19;;;;;;;6.30;4.33;;;18.10;95.60;;;;;;5044212;28;20465;-74
2022/06/05 07:48:45;;;;;;;13.83;6.13;;;18.20;95.20;;;;;;5047327;28;20557;-72
2022/06/05 07:56:48;;;;;;;11.53;6.27;;;18.30;95.30;;;;;;5039468;28;20994;-72
2022/06/05 07:59:14;;;;;;;9.63;5.53;;;18.30;95.60;;;;;;5045202;28;20449;-72
2022/06/05 08:01:40;;;;;;;9.50;6.03;;;18.50;96.00;;;;;;5037394;28;20189;-71
2022/06/05 08:04:06;;;;;;;11.70;6.60;;;18.50;96.00;;;;;;5043896;28;20421;-71
2022/06/05 08:06:35;;;;;;;10.63;6.70;;;18.70;96.10;;;;;;5035752;28;20927;-74
2022/06/05 08:09:03;;;;;;;11.40;6.50;;;18.70;95.70;;;;;;5041336;28;20822;-72
2022/06/05 08:11:29;;;;;;;12.83;5.20;;;18.80;95.60;;;;;;5038758;28;20427;-71
2022/06/05 08:13:55;;;;;;;12.90;5.67;;;18.70;95.10;;;;;;5041603;28;20566;-71
2022/06/05 08:16:20;;;;;;;7.97;5.20;;;18.80;94.30;;;;;;5036027;28;20458;-71
2022/06/05 08:18:46;;;;;;;10.20;5.50;;;18.90;94.50;;;;;;5041727;28;20193;-71
2022/06/05 08:21:12;;;;;;;7.57;4.13;;;19.10;94.90;;;;;;5043210;28;20192;-73
2022/06/05 08:23:38;;;;;;;7.33;5.00;;;19.20;94.80;;;;;;5045805;28;21058;-73
2022/06/05 08:26:04;;;;;;;10.33;4.53;;;19.40;93.70;;;;;;5040644;28;20682;-70
2022/06/05 08:28:30;;;;;;;7.73;4.50;;;19.50;92.90;;;;;;5041581;28;20478;-73
2022/06/05 08:30:56;;;;;;;5.90;3.93;;;19.50;91.90;;;;;;5043049;28;20636;-72
2022/06/05 08:33:22;;;;;;;8.83;4.13;;;19.70;92.10;;;;;;5041413;28;20481;-72
2022/06/05 08:35:49;;;;;;;9.27;3.93;;;19.90;92.30;;;;;;5045051;28;20232;-73
2022/06/05 08:41:32;;;;;;;7.10;3.70;;;20.30;90.30;;;;;;5042463;28;20424;-70
2022/06/05 08:44:34;;;;;;;5.23;3.67;;;20.40;90.30;;;;;;5040636;28;20534;-72
2022/06/05 08:47:15;;;;;;;6.67;3.90;;;20.50;89.90;;;;;;5038265;28;20514;-72
2022/06/05 08:50:17;;;;;;;5.93;3.50;;;20.40;90.00;;;;;;5044240;28;20439;-71
2022/06/05 08:52:49;;;;;;;5.87;3.37;;;20.50;90.20;;;;;;5018612;28;20456;-73
2022/06/05 08:55:20;;;;;;;6.00;3.50;;;20.50;90.10;;;;;;5038982;28;20820;-70
2022/06/05 08:57:52;;;;;;;4.53;3.27;;;20.60;90.30;;;;;;5038420;28;21068;-71
2022/06/05 09:00:38;;;;;;;7.60;3.67;;;20.70;90.30;;;;;;5038523;28;20447;-71
2022/06/05 09:03:22;;;;;;;5.70;2.87;;;20.90;90.10;;;;;;5040337;28;20953;-72
2022/06/05 09:05:51;;;;;;;7.20;3.40;;;21.10;88.70;;;;;;5035537;28;20545;-71
2022/06/05 09:08:20;;;;;;;11.80;6.60;;;21.30;87.00;;;;;;5041193;28;20499;-71
2022/06/05 09:11:20;;;;;;;8.27;3.40;;;21.50;86.60;;;;;;5032074;28;20438;-71
2022/06/05 09:13:52;;;;;;;7.47;4.60;;;21.70;86.50;;;;;;5011778;28;20913;-70
2022/06/05 09:16:28;;;;;;;6.43;3.50;;;21.80;85.70;;;;;;5034948;28;20519;-71
2022/06/05 09:18:55;;;;;;;8.20;4.33;;;21.90;85.90;;;;;;5034501;28;20433;-71
2022/06/05 09:21:23;;;;;;;4.20;2.60;;;21.90;85.50;;;;;;5032776;28;20430;-71
2022/06/05 09:23:52;;;;;;;4.07;3.07;;;22.20;84.40;;;;;;5033848;28;20465;-71
2022/06/05 09:26:51;;;;;;;3.97;2.90;;;22.20;84.60;;;;;;5040155;28;20622;-71
2022/06/05 09:29:28;;;;;;;6.23;2.87;;;22.40;84.10;;;;;;5030752;28;20445;-71
2022/06/05 09:32:27;;;;;;;3.07;2.67;;;22.50;82.70;;;;;;5041028;28;20423;-71
2022/06/05 09:34:52;;;;;;;5.27;2.23;;;22.60;83.70;;;;;;5038002;28;20568;-70
2022/06/05 09:37:23;;;;;;;5.77;2.97;;;22.50;80.90;;;;;;5040518;28;20504;-71
2022/06/05 09:39:56;;;;;;;9.50;5.60;;;22.40;81.80;;;;;;5037041;28;20202;-71
2022/06/05 09:42:40;;;;;;;5.23;3.30;;;22.30;82.50;;;;;;5031594;28;20453;-70
2022/06/05 09:45:27;;;;;;;3.70;2.43;;;22.40;82.40;;;;;;5035376;28;20505;-71
2022/06/05 09:48:30;;;;;;;5.50;2.53;;;22.60;81.70;;;;;;5035132;28;21022;-71
2022/06/05 09:50:56;;;;;;;4.10;2.30;;;22.70;80.90;;;;;;5031612;28;20425;-71
2022/06/05 09:53:28;;;;;;;27.83;9.80;;;22.70;80.60;;;;;;5039662;28;20469;-72
2022/06/05 09:55:57;;;;;;;60.57;26.47;;;22.50;80.50;;;;;;5037590;28;20462;-72
2022/06/05 09:58:27;;;;;;;9.20;3.97;;;22.40;81.70;;;;;;5041687;28;20453;-72
2022/06/05 10:00:56;;;;;;;19.57;7.50;;;22.60;81.90;;;;;;5044838;28;20524;-71
2022/06/05 10:03:37;;;;;;;12.70;5.40;;;22.80;81.40;;;;;;5037610;28;20523;-71
2022/06/05 10:06:15;;;;;;;8.80;4.63;;;23.20;81.70;;;;;;5029852;28;20483;-72
2022/06/05 10:08:45;;;;;;;7.90;2.80;;;23.60;80.90;;;;;;5036539;28;20601;-72
2022/06/05 10:11:26;;;;;;;5.13;2.83;;;24.00;78.60;;;;;;5044956;28;20436;-71
2022/06/05 10:14:21;;;;;;;4.50;2.20;;;24.30;78.10;;;;;;5044257;28;20422;-71
2022/06/05 10:16:59;;;;;;;4.13;2.00;;;24.70;77.30;;;;;;5043951;28;20456;-72
2022/06/05 10:20:02;;;;;;;6.03;2.50;;;25.20;75.40;;;;;;5069587;28;20422;-71
2022/06/05 10:22:42;;;;;;;4.50;1.80;;;25.20;74.80;;;;;;5063560;28;20411;-73
2022/06/05 10:25:30;;;;;;;3.70;2.20;;;25.10;74.80;;;;;;5053701;28;20428;-71
2022/06/05 10:28:11;;;;;;;4.70;2.20;;;24.80;74.90;;;;;;5042324;28;20550;-73
2022/06/05 10:30:56;;;;;;;5.40;2.27;;;24.60;75.40;;;;;;5050993;28;20460;-74
2022/06/05 10:33:31;;;;;;;3.70;2.23;;;24.60;75.80;;;;;;5047444;28;20437;-74
2022/06/05 10:36:22;;;;;;;4.43;2.60;;;24.30;76.50;;;;;;5043101;28;20452;-74
2022/06/05 10:39:06;;;;;;;5.53;3.00;;;23.80;78.90;;;;;;5041621;28;20517;-74
2022/06/05 10:41:51;;;;;;;5.10;3.00;;;23.40;81.10;;;;;;5042818;28;20425;-76
2022/06/05 10:44:24;;;;;;;6.37;3.60;;;23.00;83.60;;;;;;5045213;28;20440;-78
2022/06/05 10:47:01;;;;;;;7.93;3.40;;;22.70;85.20;;;;;;5043557;28;20500;-76
2022/06/05 10:49:42;;;;;;;8.33;4.57;;;22.50;86.60;;;;;;5048755;28;20426;-76
2022/06/05 10:52:11;;;;;;;10.50;5.23;;;22.20;87.30;;;;;;5046544;28;20426;-75
2022/06/05 10:54:46;;;;;;;9.17;5.40;;;21.80;88.90;;;;;;5044522;28;20422;-74
2022/06/05 10:57:19;;;;;;;8.50;5.10;;;21.30;90.50;;;;;;5031476;28;20515;-76
2022/06/05 11:00:00;;;;;;;8.80;5.73;;;21.10;91.80;;;;;;5046950;28;20486;-76
2022/06/05 11:02:54;;;;;;;8.40;5.50;;;20.70;92.60;;;;;;5044094;28;20821;-78
2022/06/05 11:05:38;;;;;;;10.83;6.57;;;20.50;92.90;;;;;;5039615;28;20492;-77
2022/06/05 11:08:12;;;;;;;9.80;5.93;;;20.40;93.50;;;;;;5040849;28;20503;-78
2022/06/05 11:13:47;;;;;;;9.50;6.70;;;20.40;94.60;;;;;;5044416;28;20912;-77
2022/06/05 11:16:19;;;;;;;10.60;6.20;;;20.40;94.00;;;;;;5044006;28;20462;-78
2022/06/05 11:19:08;;;;;;;8.00;6.33;;;20.40;94.00;;;;;;5045989;28;20658;-77
2022/06/05 11:21:35;;;;;;;9.87;6.97;;;20.50;94.10;;;;;;5043986;28;21050;-76
2022/06/05 11:24:05;;;;;;;7.57;6.00;;;20.50;94.30;;;;;;5045543;28;20516;-74
2022/06/05 11:27:00;;;;;;;14.13;5.67;;;20.50;94.30;;;;;;5047567;28;20466;-75
2022/06/05 11:29:37;;;;;;;11.63;5.90;;;20.60;93.60;;;;;;5037181;28;20445;-78
2022/06/05 11:32:11;;;;;;;11.47;5.00;;;20.60;92.20;;;;;;5052738;28;20423;-78
2022/06/05 11:34:46;;;;;;;7.00;5.30;;;20.50;92.40;;;;;;5050984;28;20482;-76
2022/06/05 11:37:27;;;;;;;8.30;5.40;;;20.50;92.40;;;;;;5035111;28;20458;-76
2022/06/05 11:40:04;;;;;;;8.20;5.00;;;20.50;92.10;;;;;;5050926;28;20538;-76
2022/06/05 11:43:07;;;;;;;7.90;4.90;;;20.60;92.30;;;;;;5050584;28;20418;-76
2022/06/05 11:46:03;;;;;;;10.90;4.83;;;20.60;92.10;;;;;;5044805;28;20432;-77
2022/06/05 11:49:05;;;;;;;9.07;4.97;;;20.70;91.90;;;;;;5048842;28;20464;-77
2022/06/05 11:52:05;;;;;;;6.77;4.27;;;20.80;92.00;;;;;;5042427;28;20451;-75
2022/06/05 11:55:12;;;;;;;9.37;4.57;;;21.30;92.10;;;;;;5041857;28;20416;-76
2022/06/05 11:58:13;;;;;;;6.80;4.53;;;21.90;90.60;;;;;;5034138;28;20945;-75
2022/06/05 12:00:50;;;;;;;10.00;4.50;;;22.40;89.20;;;;;;5043999;28;20410;-76
2022/06/05 12:03:40;;;;;;;9.70;4.43;;;23.10;87.10;;;;;;5039214;28;20978;-76
2022/06/05 12:06:18;;;;;;;5.37;3.83;;;23.60;84.90;;;;;;5036285;28;20975;-75
2022/06/05 12:08:51;;;;;;;10.03;4.23;;;23.70;83.40;;;;;;5040343;28;20491;-74
2022/06/05 12:11:40;;;;;;;5.83;3.63;;;24.00;80.30;;;;;;5045409;28;20419;-75
2022/06/05 12:14:11;;;;;;;8.20;4.33;;;24.10;80.50;;;;;;5037541;28;20461;-75
2022/06/05 12:16:51;;;;;;;6.03;3.80;;;24.20;80.90;;;;;;5043694;28;20460;-75
2022/06/05 12:19:33;;;;;;;8.17;3.60;;;24.40;79.90;;;;;;5041654;28;20420;-77
2022/06/05 12:22:10;;;;;;;10.10;3.93;;;24.70;78.60;;;;;;5041483;28;20446;-76
2022/06/05 12:24:58;;;;;;;4.53;3.33;;;25.10;76.70;;;;;;5042294;28;20421;-73
2022/06/05 12:27:39;;;;;;;4.00;2.83;;;25.40;75.40;;;;;;5033794;28;20480;-72
2022/06/05 12:30:14;;;;;;;5.03;3.30;;;25.60;72.90;;;;;;5039919;28;20432;-74
2022/06/05 12:32:50;;;;;;;10.30;3.40;;;25.60;72.40;;;;;;5039459;28;20439;-73
2022/06/05 12:35:23;;;;;;;6.57;3.30;;;25.40;70.80;;;;;;5033371;28;20431;-74
2022/06/05 12:37:56;;;;;;;5.47;3.07;;;24.70;74.00;;;;;;5036747;28;20556;-73
2022/06/05 12:40:30;;;;;;;5.60;3.37;;;24.60;75.10;;;;;;5033824;28;20423;-74
2022/06/05 12:43:15;;;;;;;7.77;3.60;;;24.20;75.90;;;;;;5041646;28;20408;-76
2022/06/05 12:45:44;;;;;;;5.77;3.40;;;24.10;77.40;;;;;;5040138;28;20425;-73
2022/06/05 12:48:13;;;;;;;3.77;2.80;;;24.40;76.50;;;;;;5042837;28;20507;-74
2022/06/05 12:51:01;;;;;;;4.37;3.33;;;24.70;73.70;;;;;;5043707;28;20427;-75
2022/06/05 12:53:43;;;;;;;8.37;3.50;;;25.20;73.00;;;;;;5046635;28;20503;-76
2022/06/05 12:56:30;;;;;;;11.90;3.53;;;25.70;70.40;;;;;;5040185;28;20821;-75
2022/06/05 12:59:17;;;;;;;5.87;3.67;;;26.20;67.90;;;;;;5044539;28;20473;-74
2022/06/05 13:01:57;;;;;;;4.07;3.47;;;25.60;69.10;;;;;;5047266;28;20511;-75
2022/06/05 13:04:51;;;;;;;5.93;3.17;;;25.10;70.10;;;;;;5043990;28;20470;-75
2022/06/05 13:07:44;;;;;;;10.03;4.27;;;24.70;71.70;;;;;;5035178;28;20472;-73
2022/06/05 13:10:25;;;;;;;5.77;3.27;;;25.10;71.70;;;;;;5048544;28;20787;-74
2022/06/05 13:13:16;;;;;;;9.20;3.20;;;25.30;71.80;;;;;;5040944;28;20418;-75
2022/06/05 13:15:54;;;;;;;5.63;3.00;;;25.50;71.60;;;;;;5039620;28;20471;-74
2022/06/05 13:18:34;;;;;;;5.13;3.03;;;25.40;70.80;;;;;;5036125;28;20474;-75
2022/06/05 13:21:14;;;;;;;8.80;3.63;;;25.30;69.90;;;;;;5039255;28;20423;-74
2022/06/05 13:23:45;;;;;;;5.87;3.13;;;25.20;70.50;;;;;;5038623;28;20429;-73
2022/06/05 13:26:27;;;;;;;5.80;3.20;;;24.90;71.30;;;;;;5036029;28;20561;-76